createdAt,value
2019-04-01T00:01:41.306Z,8.70
2019-04-01T00:04:11.260Z,9.00
2019-04-01T00:06:41.264Z,9.20
2019-04-01T00:09:11.080Z,9.30
2019-04-01T00:11:40.788Z,9.50
2019-04-01T00:14:10.533Z,9.50
2019-04-01T00:16:40.416Z,9.60
2019-04-01T00:19:10.130Z,9.60
2019-04-01T00:21:39.767Z,9.70
2019-04-01T00:24:09.513Z,9.70
2019-04-01T00:26:39.325Z,9.70
2019-04-01T00:29:09.178Z,9.80
2019-04-01T00:31:39.091Z,9.80
2019-04-01T00:34:08.957Z,9.70
2019-04-01T00:36:38.715Z,9.70
2019-04-01T00:39:08.797Z,9.70
2019-04-01T00:41:48.349Z,9.70
2019-04-01T00:44:17.913Z,9.70
2019-04-01T00:46:47.549Z,9.60
2019-04-01T00:49:17.293Z,9.60
2019-04-01T00:51:54.550Z,9.60
2019-04-01T00:54:24.111Z,9.60
2019-04-01T00:57:12.654Z,9.50
2019-04-01T00:59:42.353Z,9.50
2019-04-01T01:02:12.234Z,9.50
2019-04-01T01:04:42.275Z,9.50
2019-04-01T01:07:11.953Z,9.60
2019-04-01T01:09:41.697Z,9.60
2019-04-01T01:12:11.258Z,9.60
2019-04-01T01:14:40.999Z,9.60
2019-04-01T01:17:10.554Z,9.60
2019-04-01T01:19:40.133Z,9.60
2019-04-01T01:22:10.036Z,9.60
2019-04-01T01:24:39.576Z,9.60
2019-04-01T01:27:09.466Z,9.60
2019-04-01T01:29:39.269Z,9.60
2019-04-01T01:32:08.991Z,9.60
2019-04-01T01:34:38.515Z,9.60
2019-04-01T01:37:08.067Z,9.60
2019-04-01T01:39:37.636Z,9.50
2019-04-01T01:42:07.517Z,9.50
2019-04-01T01:44:37.087Z,9.50
2019-04-01T01:47:06.708Z,9.60
2019-04-01T01:49:36.602Z,9.50
2019-04-01T01:52:06.330Z,9.50
2019-04-01T01:54:36.044Z,9.50
2019-04-01T01:57:05.753Z,9.40
2019-04-01T01:59:35.318Z,9.40
2019-04-01T02:02:05.496Z,9.40
2019-04-01T02:04:35.269Z,9.40
2019-04-01T02:07:05.105Z,9.40
2019-04-01T02:09:34.816Z,9.40
2019-04-01T02:12:04.696Z,9.30
2019-04-01T02:14:34.458Z,9.20
2019-04-01T02:17:03.996Z,9.20
2019-04-01T02:19:33.544Z,9.20
2019-04-01T02:22:03.111Z,9.20
2019-04-01T02:24:32.648Z,9.10
2019-04-01T02:27:02.292Z,9.10
2019-04-01T02:29:31.978Z,9.10
2019-04-01T02:32:20.589Z,9.10
2019-04-01T02:34:50.258Z,9.00
2019-04-01T02:37:20.056Z,9.00
2019-04-01T02:39:49.836Z,9.00
2019-04-01T02:42:19.804Z,9.00
2019-04-01T02:44:49.425Z,8.90
2019-04-01T02:47:18.965Z,8.90
2019-04-01T02:49:48.729Z,8.90
2019-04-01T02:52:18.665Z,8.90
2019-04-01T02:54:48.549Z,8.80
2019-04-01T02:57:18.241Z,8.80
2019-04-01T02:59:47.840Z,8.80
2019-04-01T03:02:17.660Z,8.80
2019-04-01T03:04:47.290Z,8.80
2019-04-01T03:07:16.857Z,8.70
2019-04-01T03:09:46.824Z,8.70
2019-04-01T03:12:16.140Z,8.70
2019-04-01T03:14:46.186Z,8.70
2019-04-01T03:17:15.859Z,8.60
2019-04-01T03:19:45.433Z,8.60
2019-04-01T03:22:15.287Z,8.50
2019-04-01T03:24:44.896Z,8.50
2019-04-01T03:27:17.274Z,8.50
2019-04-01T03:29:45.719Z,8.50
2019-04-01T03:32:15.285Z,8.40
2019-04-01T03:34:45.263Z,8.50
2019-04-01T03:37:15.014Z,8.40
2019-04-01T03:39:44.590Z,8.40
2019-04-01T03:42:14.193Z,8.40
2019-04-01T03:44:43.929Z,8.30
2019-04-01T03:47:13.850Z,8.30
2019-04-01T03:49:43.629Z,8.30
2019-04-01T03:52:13.278Z,8.30
2019-04-01T03:54:42.912Z,8.20
2019-04-01T03:57:12.765Z,8.20
2019-04-01T03:59:42.299Z,8.10
2019-04-01T04:02:12.651Z,8.10
2019-04-01T04:04:42.375Z,8.10
2019-04-01T04:07:12.216Z,8.10
2019-04-01T04:09:41.920Z,8.00
2019-04-01T04:12:11.478Z,8.10
2019-04-01T04:14:41.162Z,8.10
2019-04-01T04:17:10.818Z,8.00
2019-04-01T04:19:40.662Z,8.00
2019-04-01T04:22:10.401Z,8.00
2019-04-01T04:24:40.193Z,7.90
2019-04-01T04:27:11.304Z,7.90
2019-04-01T04:29:41.338Z,7.90
2019-04-01T04:32:11.159Z,7.90
2019-04-01T04:34:40.779Z,8.00
2019-04-01T04:37:10.553Z,7.90
2019-04-01T04:39:40.114Z,7.90
2019-04-01T04:42:09.770Z,7.80
2019-04-01T04:44:39.444Z,7.80
2019-04-01T04:47:09.225Z,7.80
2019-04-01T04:49:38.825Z,7.70
2019-04-01T04:52:08.394Z,7.80
2019-04-01T04:54:38.231Z,7.70
2019-04-01T04:57:07.852Z,7.70
2019-04-01T04:59:37.401Z,7.60
2019-04-01T05:02:07.179Z,7.70
2019-04-01T05:04:37.200Z,7.60
2019-04-01T05:07:07.154Z,7.60
2019-04-01T05:09:36.939Z,7.60
2019-04-01T05:12:06.515Z,7.70
2019-04-01T05:14:37.621Z,7.70
2019-04-01T05:17:07.548Z,7.60
2019-04-01T05:19:37.247Z,7.80
2019-04-01T05:22:08.041Z,7.80
2019-04-01T05:24:37.824Z,7.90
2019-04-01T05:27:09.758Z,8.00
2019-04-01T05:29:40.842Z,8.20
2019-04-01T05:32:13.479Z,8.20
2019-04-01T05:34:45.597Z,8.40
2019-04-01T05:37:15.564Z,8.50
2019-04-01T05:39:46.287Z,8.50
2019-04-01T05:42:17.029Z,8.60
2019-04-01T05:44:46.834Z,8.70
2019-04-01T05:47:17.162Z,9.00
2019-04-01T05:49:47.058Z,9.20
2019-04-01T05:52:16.759Z,9.20
2019-04-01T05:54:46.257Z,9.30
2019-04-01T05:57:16.213Z,9.40
2019-04-01T05:59:46.434Z,9.40
2019-04-01T06:02:16.111Z,9.50
2019-04-01T06:04:46.462Z,9.50
2019-04-01T06:07:16.247Z,9.60
2019-04-01T06:09:45.896Z,9.70
2019-04-01T06:12:15.754Z,9.80
2019-04-01T06:14:46.624Z,9.80
2019-04-01T06:17:16.177Z,9.80
2019-04-01T06:19:46.662Z,9.90
2019-04-01T06:22:16.581Z,10.00
2019-04-01T06:24:46.286Z,10.10
2019-04-01T06:27:16.645Z,10.20
2019-04-01T06:29:46.656Z,10.30
2019-04-01T06:32:16.835Z,10.30
2019-04-01T06:34:52.817Z,10.50
2019-04-01T06:37:17.916Z,10.50
2019-04-01T06:39:47.706Z,10.60
2019-04-01T06:42:17.516Z,10.70
2019-04-01T06:44:47.427Z,10.80
2019-04-01T06:47:17.340Z,10.90
2019-04-01T06:49:47.135Z,11.00
2019-04-01T06:52:16.669Z,11.20
2019-04-01T06:54:46.319Z,11.40
2019-04-01T06:57:16.308Z,11.20
2019-04-01T06:59:47.068Z,11.20
2019-04-01T07:02:16.980Z,11.20
2019-04-01T07:04:47.344Z,11.40
2019-04-01T07:07:19.101Z,11.40
2019-04-01T07:09:50.879Z,11.40
2019-04-01T07:12:20.688Z,11.50
2019-04-01T07:14:50.492Z,11.50
2019-04-01T07:17:20.597Z,11.90
2019-04-01T07:19:50.321Z,12.30
2019-04-01T07:22:20.167Z,12.40
2019-04-01T07:24:50.013Z,12.50
2019-04-01T07:27:19.669Z,13.10
2019-04-01T07:29:49.396Z,13.40
2019-04-01T07:32:19.126Z,13.50
2019-04-01T07:34:49.082Z,13.60
2019-04-01T07:37:19.056Z,13.50
2019-04-01T07:39:48.892Z,13.40
2019-04-01T07:42:18.608Z,13.30
2019-04-01T07:44:48.884Z,13.30
2019-04-01T07:47:18.581Z,13.10
2019-04-01T07:49:48.608Z,13.20
2019-04-01T07:52:19.031Z,13.00
2019-04-01T07:54:49.099Z,13.00
2019-04-01T07:57:19.365Z,13.20
2019-04-01T07:59:49.077Z,13.30
2019-04-01T08:02:18.791Z,13.10
2019-04-01T08:04:48.478Z,13.40
2019-04-01T08:07:18.243Z,13.50
2019-04-01T08:09:47.882Z,13.70
2019-04-01T08:12:17.646Z,13.60
2019-04-01T08:14:47.405Z,13.70
2019-04-01T08:17:17.053Z,13.80
2019-04-01T08:19:46.933Z,13.70
2019-04-01T08:22:16.697Z,14.00
2019-04-01T08:24:46.545Z,14.00
2019-04-01T08:27:16.251Z,14.00
2019-04-01T08:29:46.057Z,14.00
2019-04-01T08:32:15.642Z,14.10
2019-04-01T08:34:45.550Z,14.20
2019-04-01T08:37:15.316Z,14.20
2019-04-01T08:39:45.565Z,14.30
2019-04-01T08:42:15.845Z,14.30
2019-04-01T08:44:45.519Z,14.40
2019-04-01T08:47:15.253Z,14.50
2019-04-01T08:49:45.159Z,14.40
2019-04-01T08:52:14.914Z,14.60
2019-04-01T08:54:44.820Z,14.90
2019-04-01T08:57:14.581Z,15.00
2019-04-01T08:59:44.717Z,14.80
2019-04-01T09:02:18.013Z,15.20
2019-04-01T09:04:46.017Z,15.30
2019-04-01T09:07:15.730Z,14.80
2019-04-01T09:09:46.744Z,14.80
2019-04-01T09:12:17.814Z,15.00
2019-04-01T09:14:48.728Z,15.50
2019-04-01T09:17:18.668Z,15.40
2019-04-01T09:19:48.340Z,15.00
2019-04-01T09:22:17.973Z,15.10
2019-04-01T09:24:47.723Z,15.00
2019-04-01T09:27:17.378Z,14.90
2019-04-01T09:29:47.048Z,15.40
2019-04-01T09:32:16.623Z,15.20
2019-04-01T09:34:46.419Z,15.10
2019-04-01T09:37:16.045Z,15.10
2019-04-01T09:39:45.744Z,15.40
2019-04-01T09:42:15.484Z,15.90
2019-04-01T09:45:04.620Z,16.10
2019-04-01T09:47:34.404Z,16.00
2019-04-01T09:50:04.560Z,16.20
2019-04-01T09:52:34.336Z,16.20
2019-04-01T09:55:06.155Z,16.30
2019-04-01T09:57:35.692Z,16.40
2019-04-01T10:00:06.472Z,16.30
2019-04-01T10:02:36.151Z,16.50
2019-04-01T10:05:06.474Z,16.30
2019-04-01T10:07:36.254Z,16.90
2019-04-01T10:10:06.763Z,16.40
2019-04-01T10:12:36.475Z,15.70
2019-04-01T10:15:07.041Z,15.80
2019-04-01T10:17:36.806Z,16.20
2019-04-01T10:20:08.000Z,16.40
2019-04-01T10:22:37.761Z,16.60
2019-04-01T10:25:07.949Z,16.50
2019-04-01T10:27:37.725Z,16.70
2019-04-01T10:30:09.197Z,16.20
2019-04-01T10:32:38.766Z,16.00
2019-04-01T10:35:09.435Z,16.30
2019-04-01T10:37:39.136Z,16.40
2019-04-01T10:40:09.081Z,16.90
2019-04-01T10:42:38.808Z,16.40
2019-04-01T10:45:09.217Z,16.40
2019-04-01T10:47:39.365Z,16.10
2019-04-01T10:50:10.045Z,15.90
2019-04-01T10:52:39.878Z,16.10
2019-04-01T10:55:10.050Z,16.30
2019-04-01T10:57:43.218Z,16.40
2019-04-01T11:00:11.387Z,16.20
2019-04-01T11:02:41.136Z,16.30
2019-04-01T11:05:11.181Z,16.60
2019-04-01T11:07:40.832Z,17.40
2019-04-01T11:10:11.823Z,17.80
2019-04-01T11:12:41.610Z,17.80
2019-04-01T11:15:15.208Z,17.50
2019-04-01T11:17:43.918Z,16.70
2019-04-01T11:20:14.236Z,16.70
2019-04-01T11:22:43.963Z,17.10
2019-04-01T11:25:14.137Z,16.90
2019-04-01T11:27:43.754Z,16.50
2019-04-01T11:30:14.093Z,16.40
2019-04-01T11:32:44.215Z,16.60
2019-04-01T11:35:14.222Z,16.90
2019-04-01T11:37:44.228Z,17.50
2019-04-01T11:40:14.390Z,17.50
2019-04-01T11:42:44.263Z,17.30
2019-04-01T11:45:13.914Z,17.10
2019-04-01T11:47:43.574Z,16.80
2019-04-01T11:50:13.232Z,16.70
2019-04-01T11:52:43.031Z,16.90
2019-04-01T11:55:12.781Z,17.00
2019-04-01T11:57:42.526Z,17.10
2019-04-01T12:00:15.415Z,17.30
2019-04-01T12:02:46.156Z,17.30
2019-04-01T12:05:15.957Z,17.40
2019-04-01T12:07:45.729Z,17.20
2019-04-01T12:10:15.493Z,17.30
2019-04-01T12:12:45.393Z,17.60
2019-04-01T12:15:15.428Z,17.70
2019-04-01T12:17:45.330Z,17.70
2019-04-01T12:20:15.213Z,17.80
2019-04-01T12:22:46.162Z,17.50
2019-04-01T12:25:16.101Z,17.30
2019-04-01T12:28:04.849Z,17.60
2019-04-01T12:30:34.695Z,17.70
2019-04-01T12:33:04.315Z,18.00
2019-04-01T12:35:33.970Z,17.90
2019-04-01T12:38:03.663Z,17.90
2019-04-01T12:40:33.523Z,18.10
2019-04-01T12:43:03.222Z,18.10
2019-04-01T12:45:33.138Z,17.90
2019-04-01T12:48:02.702Z,18.10
2019-04-01T12:50:32.446Z,18.20
2019-04-01T12:53:04.116Z,17.90
2019-04-01T12:55:33.817Z,17.80
2019-04-01T12:58:03.638Z,17.70
2019-04-01T13:00:33.353Z,17.60
2019-04-01T13:03:03.136Z,17.70
2019-04-01T13:05:33.083Z,17.70
2019-04-01T13:08:02.943Z,17.40
2019-04-01T13:10:32.690Z,17.60
2019-04-01T13:13:02.402Z,18.00
2019-04-01T13:15:32.124Z,17.90
2019-04-01T13:18:01.834Z,18.00
2019-04-01T13:20:38.193Z,18.30
2019-04-01T13:23:02.855Z,18.20
2019-04-01T13:25:33.873Z,17.80
2019-04-01T13:28:03.626Z,17.80
2019-04-01T13:30:33.344Z,17.70
2019-04-01T13:33:03.276Z,17.60
2019-04-01T13:35:33.176Z,17.70
2019-04-01T13:38:02.852Z,17.60
2019-04-01T13:40:32.523Z,17.60
2019-04-01T13:43:04.590Z,17.80
2019-04-01T13:45:33.622Z,17.70
2019-04-01T13:48:03.682Z,17.50
2019-04-01T13:50:33.478Z,17.50
2019-04-01T13:53:03.424Z,17.20
2019-04-01T13:55:33.207Z,17.20
2019-04-01T13:58:03.227Z,17.30
2019-04-01T14:00:32.984Z,17.30
2019-04-01T14:03:02.694Z,17.40
2019-04-01T14:05:32.351Z,17.40
2019-04-01T14:08:05.635Z,17.60
2019-04-01T14:10:33.699Z,17.70
2019-04-01T14:13:03.655Z,17.70
2019-04-01T14:15:33.466Z,17.70
2019-04-01T14:18:03.495Z,17.50
2019-04-01T14:20:33.312Z,17.20
2019-04-01T14:23:03.025Z,17.10
2019-04-01T14:25:34.815Z,17.00
2019-04-01T14:28:04.146Z,16.80
2019-04-01T14:30:33.950Z,16.90
2019-04-01T14:33:03.788Z,17.00
2019-04-01T14:35:33.552Z,17.10
2019-04-01T14:38:03.399Z,17.00
2019-04-01T14:40:33.152Z,16.90
2019-04-01T14:43:02.886Z,16.70
2019-04-01T14:45:32.771Z,16.60
2019-04-01T14:48:02.388Z,16.50
2019-04-01T14:50:32.083Z,16.50
2019-04-01T14:53:01.839Z,16.60
2019-04-01T14:55:31.617Z,16.60
2019-04-01T14:58:01.487Z,16.60
2019-04-01T15:00:31.445Z,16.50
2019-04-01T15:03:01.234Z,16.50
2019-04-01T15:05:31.071Z,16.50
2019-04-01T15:08:00.775Z,16.40
2019-04-01T15:10:30.386Z,16.50
2019-04-01T15:13:05.589Z,16.60
2019-04-01T15:15:31.469Z,16.60
2019-04-01T15:18:01.113Z,16.70
2019-04-01T15:20:30.723Z,16.60
2019-04-01T15:23:00.265Z,16.60
2019-04-01T15:25:29.881Z,16.60
2019-04-01T15:27:59.661Z,16.50
2019-04-01T15:30:31.996Z,16.40
2019-04-01T15:33:00.816Z,16.30
2019-04-01T15:35:30.645Z,16.40
2019-04-01T15:38:00.448Z,16.20
2019-04-01T15:40:33.208Z,16.20
2019-04-01T15:43:02.959Z,16.10
2019-04-01T15:45:32.965Z,16.10
2019-04-01T15:48:02.707Z,16.10
2019-04-01T15:50:32.393Z,16.10
2019-04-01T15:53:02.085Z,16.10
2019-04-01T15:55:32.005Z,16.00
2019-04-01T15:58:01.827Z,16.00
2019-04-01T16:00:32.148Z,15.90
2019-04-01T16:03:02.161Z,15.80
2019-04-01T16:05:32.119Z,15.80
2019-04-01T16:08:02.195Z,15.70
2019-04-01T16:10:31.889Z,15.70
2019-04-01T16:13:01.645Z,15.70
2019-04-01T16:15:32.291Z,15.70
2019-04-01T16:18:02.370Z,15.70
2019-04-01T16:20:34.077Z,15.70
2019-04-01T16:23:03.969Z,15.60
2019-04-01T16:25:37.162Z,15.60
2019-04-01T16:28:05.436Z,15.50
2019-04-01T16:30:35.463Z,15.40
2019-04-01T16:33:05.335Z,15.30
2019-04-01T16:35:36.074Z,15.30
2019-04-01T16:38:05.876Z,15.20
2019-04-01T16:40:35.483Z,15.20
2019-04-01T16:43:05.060Z,15.20
2019-04-01T16:45:34.674Z,15.10
2019-04-01T16:48:04.658Z,15.10
2019-04-01T16:50:34.626Z,15.00
2019-04-01T16:53:05.238Z,15.00
2019-04-01T16:55:36.087Z,14.90
2019-04-01T16:58:06.222Z,14.90
2019-04-01T17:00:36.036Z,14.90
2019-04-01T17:03:06.211Z,14.80
2019-04-01T17:05:36.067Z,14.70
2019-04-01T17:08:05.884Z,14.70
2019-04-01T17:10:35.728Z,14.60
2019-04-01T17:13:06.883Z,14.60
2019-04-01T17:15:36.666Z,14.50
2019-04-01T17:18:06.620Z,14.50
2019-04-01T17:20:36.592Z,14.40
2019-04-01T17:23:06.842Z,14.40
2019-04-01T17:25:36.662Z,14.30
2019-04-01T17:28:06.337Z,14.20
2019-04-01T17:30:36.176Z,14.20
2019-04-01T17:33:08.381Z,14.10
2019-04-01T17:35:37.628Z,14.00
2019-04-01T17:38:07.674Z,14.00
2019-04-01T17:40:37.492Z,13.90
2019-04-01T17:43:09.416Z,13.90
2019-04-01T17:45:40.723Z,13.80
2019-04-01T17:48:10.963Z,13.70
2019-04-01T17:50:40.736Z,13.60
2019-04-01T17:53:11.714Z,13.60
2019-04-01T17:55:41.632Z,13.50
2019-04-01T17:58:11.599Z,13.40
2019-04-01T18:00:54.081Z,13.40
2019-04-01T18:03:23.867Z,13.40
2019-04-01T18:05:53.732Z,13.30
2019-04-01T18:08:23.531Z,13.20
2019-04-01T18:10:53.265Z,13.10
2019-04-01T18:13:23.166Z,13.10
2019-04-01T18:15:52.793Z,13.10
2019-04-01T18:18:26.966Z,13.00
2019-04-01T18:20:54.170Z,13.00
2019-04-01T18:23:23.869Z,12.90
2019-04-01T18:25:53.765Z,12.90
2019-04-01T18:28:23.379Z,12.80
2019-04-01T18:30:53.192Z,12.80
2019-04-01T18:33:22.975Z,12.70
2019-04-01T18:35:54.243Z,12.70
2019-04-01T18:38:23.891Z,12.70
2019-04-01T18:40:53.474Z,12.60
2019-04-01T18:43:23.197Z,12.60
2019-04-01T18:45:53.090Z,12.50
2019-04-01T18:48:23.035Z,12.50
2019-04-01T18:50:52.591Z,12.40
2019-04-01T18:53:22.313Z,12.40
2019-04-01T18:55:52.864Z,12.40
2019-04-01T18:58:22.712Z,12.40
2019-04-01T19:00:52.396Z,12.30
2019-04-01T19:03:24.062Z,12.20
2019-04-01T19:05:53.842Z,12.20
2019-04-01T19:08:23.455Z,12.10
2019-04-01T19:11:02.209Z,12.10
2019-04-01T19:13:24.490Z,12.00
2019-04-01T19:15:54.862Z,12.00
2019-04-01T19:18:25.506Z,11.90
2019-04-01T19:20:57.828Z,11.90
2019-04-01T19:23:26.864Z,11.80
2019-04-01T19:25:56.743Z,11.80
2019-04-01T19:28:26.591Z,11.70
2019-04-01T19:30:56.400Z,11.70
2019-04-01T19:33:26.225Z,11.60
2019-04-01T19:35:55.997Z,11.60
2019-04-01T19:38:25.821Z,11.60
2019-04-01T19:40:55.452Z,11.50
2019-04-01T19:43:25.262Z,11.40
2019-04-01T19:45:55.077Z,11.40
2019-04-01T19:48:25.085Z,11.30
2019-04-01T19:50:54.762Z,11.30
2019-04-01T19:53:24.750Z,11.30
2019-04-01T19:55:54.646Z,11.30
2019-04-01T19:58:25.389Z,11.30
2019-04-01T20:00:55.286Z,11.20
2019-04-01T20:03:25.602Z,11.10
2019-04-01T20:05:55.518Z,11.10
2019-04-01T20:08:25.188Z,11.10
2019-04-01T20:10:54.939Z,11.00
2019-04-01T20:13:24.807Z,11.00
2019-04-01T20:15:54.567Z,11.00
2019-04-01T20:18:24.332Z,11.00
2019-04-01T20:20:53.913Z,10.90
2019-04-01T20:23:23.494Z,10.90
2019-04-01T20:25:53.150Z,10.80
2019-04-01T20:28:22.894Z,10.80
2019-04-01T20:30:52.813Z,10.80
2019-04-01T20:33:22.722Z,10.70
2019-04-01T20:35:52.525Z,10.70
2019-04-01T20:38:41.115Z,10.70
2019-04-01T20:41:11.006Z,10.60
2019-04-01T20:43:40.923Z,10.60
2019-04-01T20:46:11.101Z,10.60
2019-04-01T20:48:41.478Z,10.50
2019-04-01T20:51:11.176Z,10.50
2019-04-01T20:53:40.944Z,10.50
2019-04-01T20:56:10.800Z,10.50
2019-04-01T20:58:41.247Z,10.40
2019-04-01T21:01:14.750Z,10.40
2019-04-01T21:03:44.660Z,10.30
2019-04-01T21:06:14.375Z,10.30
2019-04-01T21:08:44.013Z,10.30
2019-04-01T21:11:32.609Z,10.20
2019-04-01T21:14:03.131Z,10.20
2019-04-01T21:16:33.068Z,10.10
2019-04-01T21:19:02.850Z,10.10
2019-04-01T21:21:32.598Z,10.00
2019-04-01T21:24:02.496Z,10.00
2019-04-01T21:26:32.349Z,10.00
2019-04-01T21:29:02.093Z,10.00
2019-04-01T21:31:31.644Z,9.90
2019-04-01T21:34:01.298Z,9.80
2019-04-01T21:36:30.840Z,9.80
2019-04-01T21:39:01.248Z,9.80
2019-04-01T21:41:31.597Z,9.70
2019-04-01T21:44:01.287Z,9.70
2019-04-01T21:46:31.115Z,9.60
2019-04-01T21:49:00.664Z,9.60
2019-04-01T21:51:30.525Z,9.60
2019-04-01T21:54:00.296Z,9.50
2019-04-01T21:56:30.251Z,9.50
2019-04-01T21:58:59.831Z,9.40
2019-04-01T22:01:29.907Z,9.30
2019-04-01T22:03:59.539Z,9.30
2019-04-01T22:06:29.400Z,9.20
2019-04-01T22:08:59.117Z,9.20
2019-04-01T22:11:29.214Z,9.20
2019-04-01T22:13:59.901Z,9.10
2019-04-01T22:16:29.827Z,9.10
2019-04-01T22:18:59.740Z,9.10
2019-04-01T22:21:29.517Z,9.00
2019-04-01T22:23:59.028Z,9.00
2019-04-01T22:26:28.633Z,9.00
2019-04-01T22:28:58.154Z,9.00
2019-04-01T22:31:27.981Z,9.00
2019-04-01T22:33:57.634Z,9.00
2019-04-01T22:36:31.134Z,9.00
2019-04-01T22:38:58.431Z,9.00
2019-04-01T22:41:29.284Z,8.90
2019-04-01T22:43:59.205Z,8.80
2019-04-01T22:46:29.119Z,8.70
2019-04-01T22:48:58.861Z,8.70
2019-04-01T22:51:28.601Z,8.60
2019-04-01T22:53:58.189Z,8.50
2019-04-01T22:56:27.733Z,8.40
2019-04-01T22:58:57.567Z,8.40
2019-04-01T23:01:27.247Z,8.20
2019-04-01T23:03:57.026Z,8.10
2019-04-01T23:06:26.956Z,8.10
2019-04-01T23:08:56.655Z,7.90
2019-04-01T23:11:26.323Z,7.90
2019-04-01T23:13:56.087Z,7.80
2019-04-01T23:16:25.678Z,7.70
2019-04-01T23:18:55.262Z,7.70
2019-04-01T23:21:25.172Z,7.70
2019-04-01T23:23:54.965Z,7.50
2019-04-01T23:26:25.313Z,7.50
2019-04-01T23:28:55.872Z,7.40
2019-04-01T23:31:25.439Z,7.40
2019-04-01T23:33:55.281Z,7.30
2019-04-01T23:36:25.026Z,7.10
2019-04-01T23:38:54.823Z,7.00
2019-04-01T23:41:24.579Z,6.80
2019-04-01T23:43:55.095Z,6.80
2019-04-01T23:46:24.798Z,6.70
2019-04-01T23:48:54.380Z,6.70
2019-04-01T23:51:24.088Z,6.60
2019-04-01T23:53:54.062Z,6.50
2019-04-01T23:56:23.712Z,6.50
2019-04-01T23:58:53.602Z,6.40
